地図

経路データ

SID SEASON NUMBER BASIN SUBBASIN NAME ISO_TIME NATURE LAT LON WMO_WIND WMO_PRES WMO_AGENCY TRACK_TYPE DIST2LAND LANDFALL IFLAG USA_AGENCY USA_ATCF_ID USA_LAT USA_LON USA_RECORD USA_STATUS USA_WIND USA_PRES USA_SSHS USA_R34_NE USA_R34_SE USA_R34_SW USA_R34_NW USA_R50_NE USA_R50_SE USA_R50_SW USA_R50_NW USA_R64_NE USA_R64_SE USA_R64_SW USA_R64_NW USA_POCI USA_ROCI USA_RMW USA_EYE TOKYO_LAT TOKYO_LON TOKYO_GRADE TOKYO_WIND TOKYO_PRES TOKYO_R50_DIR TOKYO_R50_LONG TOKYO_R50_SHORT TOKYO_R30_DIR TOKYO_R30_LONG TOKYO_R30_SHORT TOKYO_LAND CMA_LAT CMA_LON CMA_CAT CMA_WIND CMA_PRES HKO_LAT HKO_LON HKO_CAT HKO_WIND HKO_PRES NEWDELHI_LAT NEWDELHI_LON NEWDELHI_GRADE NEWDELHI_WIND NEWDELHI_PRES NEWDELHI_CI NEWDELHI_DP NEWDELHI_POCI REUNION_LAT REUNION_LON REUNION_TYPE REUNION_WIND REUNION_PRES REUNION_TNUM REUNION_CI REUNION_RMW REUNION_R34_NE REUNION_R34_SE REUNION_R34_SW REUNION_R34_NW REUNION_R50_NE REUNION_R50_SE REUNION_R50_SW REUNION_R50_NW REUNION_R64_NE REUNION_R64_SE REUNION_R64_SW REUNION_R64_NW BOM_LAT BOM_LON BOM_TYPE BOM_WIND BOM_PRES BOM_TNUM BOM_CI BOM_RMW BOM_R34_NE BOM_R34_SE BOM_R34_SW BOM_R34_NW BOM_R50_NE BOM_R50_SE BOM_R50_SW BOM_R50_NW BOM_R64_NE BOM_R64_SE BOM_R64_SW BOM_R64_NW BOM_ROCI BOM_POCI BOM_EYE BOM_POS_METHOD BOM_PRES_METHOD NADI_LAT NADI_LON NADI_CAT NADI_WIND NADI_PRES WELLINGTON_LAT WELLINGTON_LON WELLINGTON_WIND WELLINGTON_PRES DS824_LAT DS824_LON DS824_STAGE DS824_WIND DS824_PRES TD9636_LAT TD9636_LON TD9636_STAGE TD9636_WIND TD9636_PRES TD9635_LAT TD9635_LON TD9635_WIND TD9635_PRES TD9635_ROCI NEUMANN_LAT NEUMANN_LON NEUMANN_CLASS NEUMANN_WIND NEUMANN_PRES MLC_LAT MLC_LON MLC_CLASS MLC_WIND MLC_PRES USA_GUST BOM_GUST BOM_GUST_PER REUNION_GUST REUNION_GUST_PER USA_SEAHGT USA_SEARAD_NE USA_SEARAD_SE USA_SEARAD_SW USA_SEARAD_NW STORM_SPEED STORM_DIR
1993331N07108 1993 93 WP MM NOT_NAMED 1993-11-27 00:00:00 NR 7.40000 107.700 main 275 240 O_____________ jtwc_io IO021993 7.40000 107.700 20 -1 11 277
1993331N07108 1993 93 WP MM NOT_NAMED 1993-11-27 03:00:00 NR 7.46262 107.153 main 240 204 P_____________ IO021993 7.46262 107.153 20 -1 11 275
1993331N07108 1993 93 WP MM NOT_NAMED 1993-11-27 06:00:00 NR 7.50000 106.600 main 204 170 O_____________ jtwc_io IO021993 7.50000 106.600 20 -1 11 272
1993331N07108 1993 93 WP MM NOT_NAMED 1993-11-27 09:00:00 NR 7.49996 106.042 main 164 147 P_____________ IO021993 7.49996 106.042 20 -1 11 270
1993331N07108 1993 93 WP MM NOT_NAMED 1993-11-27 12:00:00 NR 7.50000 105.500 main 147 134 O_____________ jtwc_io IO021993 7.50000 105.500 20 -1 10 272
1993331N07108 1993 93 WP MM NOT_NAMED 1993-11-27 15:00:00 NR 7.54239 105.000 main 134 123 P_____________ IO021993 7.54239 105.000 20 -1 10 276
1993331N07108 1993 93 WP MM NOT_NAMED 1993-11-27 18:00:00 NR 7.60000 104.500 main 130 130 O_____________ jtwc_io IO021993 7.60000 104.500 20 -1 10 276
1993331N07108 1993 93 WP MM NOT_NAMED 1993-11-27 21:00:00 NR 7.65746 103.958 main 149 149 P_____________ IO021993 7.65746 103.958 20 -1 11 275
1993331N07108 1993 93 WP MM NOT_NAMED 1993-11-28 00:00:00 NR 7.70000 103.400 main 197 175 O_____________ jtwc_io IO021993 7.70000 103.400 20 -1 11 272
1993331N07108 1993 93 WP MM NOT_NAMED 1993-11-28 03:00:00 NR 7.69996 102.842 main 166 127 P_____________ IO021993 7.69996 102.842 20 -1 11 270
1993331N07108 1993 93 WP MM NOT_NAMED 1993-11-28 06:00:00 NR 7.70000 102.300 main 127 103 O_____________ jtwc_io IO021993 7.70000 102.300 20 -1 10 273
1993331N07108 1993 93 WP MM NOT_NAMED 1993-11-28 09:00:00 NR 7.74989 101.800 main 103 94 P_____________ IO021993 7.74989 101.800 20 -1 10 276
1993331N07108 1993 93 WP MM NOT_NAMED 1993-11-28 12:00:00 NR 7.80000 101.300 main 94 44 O_____________ jtwc_io IO021993 7.80000 101.300 20 -1 10 273
1993331N07108 1993 93 WP MM NOT_NAMED 1993-11-28 15:00:00 NR 7.79996 100.757 main 44 0 P_____________ IO021993 7.79996 100.757 20 -1 11 270
1993331N07108 1993 93 WP MM NOT_NAMED 1993-11-28 18:00:00 NR 7.80000 100.200 main 0 0 O_____________ jtwc_io IO021993 7.80000 100.200 20 -1 11 273
1993331N07108 1993 93 NI BB NOT_NAMED 1993-11-28 21:00:00 NR 7.84996 99.6426 main 0 0 P_____________ IO021993 7.84996 99.6426 20 -1 11 275
1993331N07108 1993 93 NI BB NOT_NAMED 1993-11-29 00:00:00 NR 7.90000 99.1000 main 0 0 O_____________ jtwc_io IO021993 7.90000 99.1000 20 -1 10 273
1993331N07108 1993 93 NI BB NOT_NAMED 1993-11-29 03:00:00 NR 7.90739 98.6000 main 24 22 P_____________ IO021993 7.90739 98.6000 20 -1 10 270
1993331N07108 1993 93 NI BB NOT_NAMED 1993-11-29 06:00:00 NR 7.90000 98.1000 main 39 39 O_____________ jtwc_io IO021993 7.90000 98.1000 20 -1 10 270
1993331N07108 1993 93 NI BB NOT_NAMED 1993-11-29 09:00:00 NR 7.89993 97.5650 main 84 84 P_____________ IO021993 7.89993 97.5650 20 -1 11 270
1993331N07108 1993 93 NI BB NOT_NAMED 1993-11-29 12:00:00 NR 7.90000 97.0000 main 147 147 O_____________ jtwc_io IO021993 7.90000 97.0000 20 -1 11 271
1993331N07108 1993 93 NI BB NOT_NAMED 1993-11-29 15:00:00 NR 7.92241 96.4151 main 212 212 P_____________ IO021993 7.92241 96.4151 20 -1 12 270
1993331N07108 1993 93 NI BB NOT_NAMED 1993-11-29 18:00:00 NR 7.90000 95.8000 main 259 246 O_____________ jtwc_io IO021993 7.90000 95.8000 20 -1 12 262
1993331N07108 1993 93 NI BB NOT_NAMED 1993-11-29 21:00:00 NR 7.75732 95.1799 main 246 230 P_____________ IO021993 7.75732 95.1799 22 -1 13 257
1993331N07108 1993 93 NI BB NOT_NAMED 1993-11-30 00:00:00 NR 7.60000 94.5000 main 237 237 O_____________ jtwc_io IO021993 7.60000 94.5000 25 -1 15 261
1993331N07108 1993 93 NI BB NOT_NAMED 1993-11-30 03:00:00 NR 7.52015 93.6850 main 269 269 P_____________ IO021993 7.52015 93.6850 25 -1 16 266
1993331N07108 1993 93 NI BB NOT_NAMED 1993-11-30 06:00:00 NR 7.50000 92.9000 main 331 331 O_____________ jtwc_io IO021993 7.50000 92.9000 25 -1 14 270
1993331N07108 1993 93 NI BB NOT_NAMED 1993-11-30 09:00:00 NR 7.52732 92.2976 main 384 384 P_____________ IO021993 7.52732 92.2976 25 -1 11 275
1993331N07108 1993 93 NI BB NOT_NAMED 1993-11-30 12:00:00 NR 7.60000 91.8000 main 437 437 O_____________ jtwc_io IO021993 7.60000 91.8000 25 -1 10 280
1993331N07108 1993 93 NI BB NOT_NAMED 1993-11-30 15:00:00 NR 7.69238 91.3425 main 491 491 P_____________ IO021993 7.69238 91.3425 27 -1 9 283
1993331N07108 1993 93 NI BB NOT_NAMED 1993-11-30 18:00:00 NR 7.80000 90.9000 main 535 535 O_____________ jtwc_io IO021993 7.80000 90.9000 30 -1 10 282
1993331N07108 1993 93 NI BB NOT_NAMED 1993-11-30 21:00:00 NR 7.90002 90.3925 main 589 589 P_____________ IO021993 7.90002 90.3925 30 -1 10 281
1993331N07108 1993 93 NI BB NOT_NAMED 1993-12-01 00:00:00 NR 8.00000 89.9000 main 644 644 O_____________ jtwc_io IO021993 8.00000 89.9000 30 -1 6 287
1993331N07108 1993 93 NI BB NOT_NAMED 1993-12-01 03:00:00 NR 8.08591 89.7940 15 1004 newdelhi main 659 645 P___O_________ IO021993 8.10739 89.4925 30 -1 8.00000 91.0000 15 1004 1.00000 2 1006 3 220
1993331N07108 1993 93 NI BB NOT_NAMED 1993-12-01 06:00:00 NR 7.80000 89.7333 25 1002 newdelhi main 656 656 O___O_________ jtwc_io IO021993 8.20000 89.1000 30 -1 7.00000 91.0000 25 1002 1.50000 4 1006 6 243
1993331N07108 1993 93 NI BB NOT_NAMED 1993-12-01 09:00:00 NR 7.82666 89.2876 main 697 697 P___P_________ IO021993 8.25000 88.6499 30 -1 7.26221 90.1378 27 1001 5 1006 12 287
1993331N07108 1993 93 NI BB NOT_NAMED 1993-12-01 12:00:00 NR 8.15000 88.6000 30 1000 newdelhi main 751 697 O___O_________ jtwc_io IO021993 8.30000 88.2000 30 -1 8.00000 89.0000 30 1000 2.00000 6 1006 13 289
1993331N07108 1993 93 NI BB NOT_NAMED 1993-12-01 15:00:00 NR 8.23355 88.0898 main 697 653 P___P_________ IO021993 8.39244 87.7925 32 -1 8.07467 88.3871 30 1001 6 1007 9 276
1993331N07108 1993 93 NI BB NOT_NAMED 1993-12-01 18:00:00 NR 8.25000 87.7000 30 1002 newdelhi main 655 622 O___O_________ jtwc_io IO021993 8.50000 87.4000 35 0 8.00000 88.0000 30 1002 2.00000 6 1008 7 276
1993331N07108 1993 93 NI BB NOT_NAMED 1993-12-01 21:00:00 NR 8.30364 87.3835 main 622 589 P___P_________ IO021993 8.60746 87.0000 35 0 7.99983 87.7670 30 1002 6 1008 7 279
1993331N07108 1993 93 NI BB NOT_NAMED 1993-12-02 00:00:00 NR 8.35000 87.0500 30 1002 newdelhi main 590 536 O___O_________ jtwc_io IO021993 8.70000 86.6000 35 0 8.00000 87.5000 30 1002 2.00000 6 1008 8 276
1993331N07108 1993 93 NI BB NOT_NAMED 1993-12-02 03:00:00 NR 8.37874 86.5962 30 1000 newdelhi main 536 497 P___O_________ IO021993 8.75748 86.1925 37 0 8.00000 87.0000 30 1000 2.00000 6 1006 9 289
1993331N07108 1993 93 NI BB NOT_NAMED 1993-12-02 06:00:00 NR 8.65000 86.1500 30 1002 newdelhi main 500 450 O___O_________ jtwc_io IO021993 8.80000 85.8000 40 0 8.50000 86.5000 30 1002 2.50000 6 1008 10 298
1993331N07108 1993 93 NI BB NOT_NAMED 1993-12-02 09:00:00 NR 8.84260 85.7079 main 450 412 P___P_________ IO021993 8.84992 85.4500 42 0 8.83528 85.9659 37 999 8 1007 9 290
1993331N07108 1993 93 NI BB NOT_NAMED 1993-12-02 12:00:00 NR 8.95000 85.3000 45 996 newdelhi main 416 385 O___O_________ jtwc_io IO021993 8.90000 85.1000 45 0 9.00000 85.5000 45 996 3.00000 10 1006 7 280
1993331N07108 1993 93 NI BB NOT_NAMED 1993-12-02 15:00:00 NR 8.97492 84.9636 main 385 355 P___P_________ IO021993 8.94995 84.7150 47 0 8.99988 85.2123 45 996 10 1006 6 274
1993331N07108 1993 93 NI BB NOT_NAMED 1993-12-02 18:00:00 NR 9.00000 84.6500 45 996 newdelhi main 355 331 O___O_________ jtwc_io IO021993 9.00000 84.3000 50 0 9.00000 85.0000 45 996 3.00000 10 1006 6 287
1993331N07108 1993 93 NI BB NOT_NAMED 1993-12-02 21:00:00 NR 9.15456 84.3767 main 336 301 P___P_________ IO021993 9.04250 83.8500 52 0 9.26663 84.9034 45 995 10 1005 8 293
1993331N07108 1993 93 NI BB NOT_NAMED 1993-12-03 00:00:00 NR 9.30000 83.9500 45 994 newdelhi main 301 231 O___O_________ jtwc_io IO021993 9.10000 83.4000 55 0 9.50000 84.5000 45 994 3.00000 10 1004 11 280
1993331N07108 1993 93 NI BB NOT_NAMED 1993-12-03 03:00:00 NR 9.34246 83.2462 55 988 newdelhi main 222 190 P___O_________ IO021993 9.18493 82.9925 57 0 9.50000 83.5000 55 988 3.50000 16 1004 11 275
1993331N07108 1993 93 NI BB NOT_NAMED 1993-12-03 06:00:00 NR 9.40000 82.8000 55 988 newdelhi main 190 159 O___O_________ jtwc_io IO021993 9.30000 82.6000 60 0 9.50000 83.0000 55 988 3.50000 16 1004 9 284
1993331N07108 1993 93 NI BB NOT_NAMED 1993-12-03 09:00:00 NR 9.57071 82.3293 main 157 133 P___P_________ IO021993 9.44248 82.1925 62 0 9.69893 82.4661 60 985 19 1004 10 294
1993331N07108 1993 93 NI BB NOT_NAMED 1993-12-03 12:00:00 NR 9.80000 81.9000 65 982 newdelhi main 133 117 O___O_________ jtwc_io IO021993 9.60000 81.8000 65 1 10.0000 82.0000 65 982 4.00000 22 1004 9 300
1993331N07108 1993 93 NI BB NOT_NAMED 1993-12-03 15:00:00 NR 9.99613 81.5849 main 117 109 P___P_________ IO021993 9.72744 81.4424 70 1 10.2648 81.7274 65 982 22 1004 7 304
1993331N07108 1993 93 NI BB NOT_NAMED 1993-12-03 18:00:00 NR 10.2000 81.3000 65 982 newdelhi main 114 109 O___O_________ jtwc_io IO021993 9.90000 81.1000 75 1 10.5000 81.5000 65 982 4.00000 22 1004 7 306
1993331N07108 1993 93 NI BB NOT_NAMED 1993-12-03 21:00:00 NR 10.4115 81.0065 main 109 76 P___P_________ IO021993 10.1699 80.7574 72 1 10.6531 81.2555 71 979 26 1005 8 303
1993331N07108 1993 93 NI BB NOT_NAMED 1993-12-04 00:00:00 NR 10.6500 80.6000 77 976 newdelhi main 76 21 O___O_________ jtwc_io IO021993 10.5000 80.4000 70 1 10.8000 80.8000 77 976 4.50000 30 1006 11 298
1993331N07108 1993 93 NI BB NOT_NAMED 1993-12-04 03:00:00 NR 10.9249 80.0150 77 976 newdelhi main 10 0 P___O_________ IO021993 10.8499 80.0299 67 1 11.0000 80.0000 77 976 4.50000 30 1006 15 299
1993331N07108 1993 93 NI BB NOT_NAMED 1993-12-04 06:00:00 NR 11.3500 79.3000 90 968 newdelhi main 0 0 O___O_________ jtwc_io IO021993 11.2000 79.6000 65 1 11.5000 79.0000 90 968 5.00000 40 1008 14 302
1993331N07108 1993 93 NI BB NOT_NAMED 1993-12-04 09:00:00 NR 11.6541 78.8342 main 0 0 P___P_________ IO021993 11.5075 79.0724 60 0 11.8006 78.5961 60 983 23 1006 10 304
1993331N07108 1993 93 NI BB NOT_NAMED 1993-12-04 12:00:00 NR 11.8857 78.5000 30 998 newdelhi main 0 0 O___O_________ jtwc_io IO021993 11.8000 78.5000 55 0 12.0000 78.5000 30 998 0.00000 6 1004 9 303
1993331N07108 1993 93 NI BB NOT_NAMED 1993-12-04 15:00:00 NR 12.1443 78.0671 main 0 0 P___P_________ IO021993 12.0999 77.9499 47 0 12.2333 78.3015 22 1000 4 1004 11 299
1993331N07108 1993 93 NI AS NOT_NAMED 1993-12-04 18:00:00 NR 12.4200 77.5200 15 1002 newdelhi main 0 0 O___O_________ jtwc_io IO021993 12.4000 77.4000 40 0 12.5000 78.0000 15 1002 0.00000 2 1004 13 295
1993331N07108 1993 93 NI AS NOT_NAMED 1993-12-04 21:00:00 NR 12.6999 76.8499 main 0 0 P_____________ IO021993 12.6999 76.8499 35 0 13 296
1993331N07108 1993 93 NI AS NOT_NAMED 1993-12-05 00:00:00 NR 13.0000 76.3000 main 0 0 O_____________ jtwc_io IO021993 13.0000 76.3000 30 -1 12 300
1993331N07108 1993 93 NI AS NOT_NAMED 1993-12-05 03:00:00 NR 13.3149 75.7500 main 0 0 P_____________ IO021993 13.3149 75.7500 27 -1 12 299
1993331N07108 1993 93 NI AS NOT_NAMED 1993-12-05 06:00:00 NR 13.6000 75.2000 main 0 0 O_____________ jtwc_io IO021993 13.6000 75.2000 25 -1 12 296
1993331N07108 1993 93 NI AS NOT_NAMED 1993-12-05 09:00:00 NR 13.8299 74.6499 main 10 0 P_____________ IO021993 13.8299 74.6499 25 -1 11 291
1993331N07108 1993 93 NI AS NOT_NAMED 1993-12-05 12:00:00 NR 14.0000 74.1000 main 44 44 O_____________ jtwc_io IO021993 14.0000 74.1000 25 -1 11 285
1993331N07108 1993 93 NI AS NOT_NAMED 1993-12-05 15:00:00 NR 14.1153 73.5501 main 89 89 P_____________ IO021993 14.1153 73.5501 25 -1 11 281
1993331N07108 1993 93 NI AS NOT_NAMED 1993-12-05 18:00:00 NR 14.2000 73.0000 main 136 O_____________ jtwc_io IO021993 14.2000 73.0000 25 -1 11 279

デジタル台風データ・検索

IBTrACS Databaseについて

本データベースは、米国NOAAが公開する1842年以降の世界の熱帯低気圧のベストトラックデータアーカイブInternational Best Track Archive for Climate Stewardship (IBTrACS)を、ウェブで閲覧しやすい形式に変換したものです。

最終更新日:2021-12-01